createdAt,value
2023-03-25T00:02:27.854Z,39.63
2023-03-25T00:07:37.118Z,37.97
2023-03-25T00:12:42.980Z,41.50
2023-03-25T00:17:48.386Z,38.95
2023-03-25T00:22:56.398Z,35.60
2023-03-25T00:28:01.606Z,39.85
2023-03-25T00:33:07.034Z,41.95
2023-03-25T00:38:15.116Z,25.63
2023-03-25T00:43:20.144Z,24.20
2023-03-25T00:48:25.189Z,7.88
2023-03-25T00:53:32.913Z,25.90
2023-03-25T00:58:38.138Z,17.70
2023-03-25T01:03:44.138Z,9.38
2023-03-25T01:08:51.900Z,12.02
2023-03-25T01:13:59.887Z,14.75
2023-03-25T01:19:04.899Z,15.45
2023-03-25T01:24:15.746Z,17.88
2023-03-25T01:29:22.776Z,10.65
2023-03-25T01:34:28.302Z,8.70
2023-03-25T01:39:36.012Z,7.50
2023-03-25T01:45:10.953Z,5.70
2023-03-25T01:50:17.824Z,5.80
2023-03-25T01:55:27.844Z,5.78
2023-03-25T02:05:40.830Z,4.55
2023-03-25T02:10:52.516Z,4.97
2023-03-25T02:16:22.074Z,5.25
2023-03-25T02:22:03.768Z,4.78
2023-03-25T02:27:27.681Z,4.97
2023-03-25T02:32:57.057Z,5.00
2023-03-25T02:38:22.035Z,5.55
2023-03-25T02:43:32.334Z,5.70
2023-03-25T02:48:40.677Z,6.00
2023-03-25T02:53:50.059Z,6.18
2023-03-25T02:58:57.545Z,5.50
2023-03-25T03:04:02.780Z,4.80
2023-03-25T03:09:32.519Z,5.20
2023-03-25T03:14:58.522Z,4.47
2023-03-25T03:20:07.652Z,4.88
2023-03-25T03:25:23.105Z,4.75
2023-03-25T03:30:32.800Z,3.70
2023-03-25T03:35:41.299Z,4.18
2023-03-25T03:40:52.852Z,3.38
2023-03-25T03:46:01.354Z,4.72
2023-03-25T03:51:10.604Z,4.75
2023-03-25T03:56:22.575Z,3.93
2023-03-25T04:01:31.634Z,5.45
2023-03-25T04:06:42.245Z,4.90
2023-03-25T04:11:54.060Z,4.07
2023-03-25T04:16:59.993Z,3.38
2023-03-25T04:22:05.260Z,3.50
2023-03-25T04:27:13.989Z,3.28
2023-03-25T04:32:19.315Z,3.22
2023-03-25T04:37:24.453Z,2.85
2023-03-25T04:42:33.321Z,3.35
2023-03-25T04:47:45.385Z,3.55
2023-03-25T04:52:50.749Z,2.70
2023-03-25T04:57:58.614Z,3.25
2023-03-25T05:03:04.084Z,3.10
2023-03-25T05:08:09.212Z,2.80
2023-03-25T05:13:17.111Z,3.05
2023-03-25T05:18:22.202Z,2.92
2023-03-25T05:23:27.508Z,3.08
2023-03-25T05:28:36.118Z,3.00
2023-03-25T05:33:43.084Z,3.35
2023-03-25T05:38:48.661Z,2.95
2023-03-25T05:43:56.305Z,2.53
2023-03-25T05:49:02.227Z,2.97
2023-03-25T05:54:12.015Z,3.53
2023-03-25T05:59:20.722Z,3.47
2023-03-25T06:04:25.885Z,3.20
2023-03-25T06:09:31.308Z,3.78
2023-03-25T06:14:38.962Z,3.45
2023-03-25T06:19:44.148Z,3.40
2023-03-25T06:24:49.948Z,5.38
2023-03-25T06:29:58.578Z,3.72
2023-03-25T06:35:03.728Z,3.20
2023-03-25T06:40:10.566Z,3.25
2023-03-25T06:45:18.601Z,3.75
2023-03-25T06:50:23.710Z,3.30
2023-03-25T06:55:29.572Z,4.05
2023-03-25T07:00:37.504Z,3.60
2023-03-25T07:05:44.626Z,4.38
2023-03-25T07:10:50.912Z,5.13
2023-03-25T07:16:01.125Z,5.40
2023-03-25T07:21:06.792Z,4.30
2023-03-25T07:26:13.524Z,4.85
2023-03-25T07:31:21.398Z,4.10
2023-03-25T07:36:27.285Z,5.13
2023-03-25T07:41:32.766Z,5.25
2023-03-25T07:46:40.486Z,3.13
2023-03-25T07:51:45.775Z,3.15
2023-03-25T07:56:51.233Z,2.53
2023-03-25T08:01:59.058Z,3.10
2023-03-25T08:07:04.285Z,1.52
2023-03-25T08:12:10.223Z,2.20
2023-03-25T08:17:17.868Z,1.50
2023-03-25T08:22:23.013Z,1.60
2023-03-25T08:27:28.321Z,2.50
2023-03-25T08:32:40.707Z,1.90
2023-03-25T08:37:45.852Z,1.80
2023-03-25T08:42:50.990Z,2.30
2023-03-25T08:47:58.647Z,1.50
2023-03-25T08:53:04.064Z,5.65
2023-03-25T08:58:09.592Z,4.63
2023-03-25T09:03:17.805Z,2.38
2023-03-25T09:08:23.151Z,2.20
2023-03-25T09:13:28.273Z,1.40
2023-03-25T09:18:37.034Z,1.02
2023-03-25T09:23:42.254Z,0.90
2023-03-25T09:28:48.253Z,1.65
2023-03-25T09:33:56.725Z,4.95
2023-03-25T09:39:01.796Z,1.48
2023-03-25T09:44:16.897Z,4.07
2023-03-25T09:49:28.159Z,0.70
2023-03-25T09:54:35.011Z,0.70
2023-03-25T09:59:43.999Z,4.60
2023-03-25T10:05:02.857Z,0.90
2023-03-25T10:10:15.565Z,1.52
2023-03-25T10:15:29.169Z,0.90
2023-03-25T10:20:47.423Z,0.90
2023-03-25T10:25:57.082Z,0.90
2023-03-25T10:31:02.898Z,6.20
2023-03-25T10:36:15.287Z,3.28
2023-03-25T10:41:26.791Z,4.18
2023-03-25T10:46:35.183Z,5.30
2023-03-25T10:51:42.915Z,4.60
2023-03-25T10:56:51.187Z,0.80
2023-03-25T11:01:57.085Z,2.83
2023-03-25T11:07:08.275Z,2.08
2023-03-25T11:12:13.403Z,0.50
2023-03-25T11:17:21.995Z,0.90
2023-03-25T11:22:31.215Z,1.00
2023-03-25T11:27:44.238Z,1.00
2023-03-25T11:33:00.128Z,1.15
2023-03-25T11:38:19.548Z,0.70
2023-03-25T11:43:25.904Z,1.08
2023-03-25T11:48:34.412Z,1.20
2023-03-25T11:53:47.529Z,0.97
2023-03-25T11:58:54.904Z,1.98
2023-03-25T12:04:14.240Z,2.95
2023-03-25T12:09:21.965Z,0.40
2023-03-25T12:14:34.621Z,2.67
2023-03-25T12:19:47.733Z,1.00
2023-03-25T12:25:08.292Z,0.30
2023-03-25T12:30:28.740Z,0.65
2023-03-25T12:35:38.522Z,0.93
2023-03-25T12:40:59.079Z,1.00
2023-03-25T12:46:16.068Z,0.90
2023-03-25T12:51:28.891Z,0.80
2023-03-25T12:56:46.445Z,1.45
2023-03-25T13:01:57.628Z,1.20
2023-03-25T13:07:05.254Z,0.98
2023-03-25T13:12:16.974Z,1.25
2023-03-25T13:17:28.471Z,1.73
2023-03-25T13:22:37.988Z,1.73
2023-03-25T13:32:52.322Z,0.88
2023-03-25T13:38:00.581Z,2.20
2023-03-25T13:43:10.164Z,2.55
2023-03-25T13:48:21.398Z,1.42
2023-03-25T13:53:31.989Z,1.35
2023-03-25T13:59:01.104Z,1.80
2023-03-25T14:04:28.657Z,1.73
2023-03-25T14:10:00.242Z,1.27
2023-03-25T14:15:11.174Z,2.30
2023-03-25T14:20:24.637Z,3.20
2023-03-25T14:25:37.475Z,2.47
2023-03-25T14:30:46.002Z,3.17
2023-03-25T14:35:59.422Z,2.10
2023-03-25T14:41:05.270Z,1.25
2023-03-25T14:46:22.104Z,2.10
2023-03-25T14:51:46.931Z,2.28
2023-03-25T14:56:57.510Z,1.95
2023-03-25T15:02:18.115Z,3.10
2023-03-25T15:07:43.237Z,1.85
2023-03-25T15:12:51.573Z,3.70
2023-03-25T15:18:00.319Z,2.97
2023-03-25T15:23:34.184Z,4.03
2023-03-25T15:29:12.391Z,2.60
2023-03-25T15:34:41.891Z,2.40
2023-03-25T15:40:00.166Z,2.00
2023-03-25T15:45:23.171Z,1.92
2023-03-25T15:50:41.322Z,1.83
2023-03-25T15:55:49.683Z,1.27
2023-03-25T16:00:57.471Z,1.80
2023-03-25T16:06:08.654Z,24.42
2023-03-25T16:11:18.712Z,2.25
2023-03-25T16:21:31.964Z,1.92
2023-03-25T16:26:39.374Z,2.67
2023-03-25T16:31:44.593Z,3.13
2023-03-25T16:36:53.608Z,2.63
2023-03-25T16:42:06.626Z,2.50
2023-03-25T16:47:14.223Z,4.50
2023-03-25T16:52:23.808Z,6.97
2023-03-25T16:57:30.909Z,1.95
2023-03-25T17:02:43.377Z,1.83
2023-03-25T17:07:52.320Z,0.73
2023-03-25T17:12:59.845Z,1.58
2023-03-25T17:18:07.166Z,5.07
2023-03-25T17:23:25.701Z,1.42
2023-03-25T17:28:38.300Z,4.70
2023-03-25T17:33:51.196Z,2.47
2023-03-25T17:39:01.362Z,1.63
2023-03-25T17:44:09.275Z,2.95
2023-03-25T17:49:18.933Z,3.45
2023-03-25T17:54:26.847Z,2.10
2023-03-25T17:59:32.036Z,2.90
2023-03-25T18:04:38.610Z,4.47
2023-03-25T18:09:46.642Z,8.27
2023-03-25T18:14:52.355Z,8.32
2023-03-25T18:19:57.593Z,5.18
2023-03-25T18:25:05.515Z,5.38
2023-03-25T18:30:20.820Z,7.07
2023-03-25T18:35:26.639Z,5.13
2023-03-25T18:40:37.043Z,6.05
2023-03-25T18:45:42.575Z,6.35
2023-03-25T18:50:52.955Z,6.25
2023-03-25T18:56:02.499Z,5.80
2023-03-25T19:01:10.347Z,6.63
2023-03-25T19:06:17.205Z,5.95
2023-03-25T19:11:25.287Z,18.67
2023-03-25T19:16:30.596Z,9.25
2023-03-25T19:21:35.893Z,16.42
2023-03-25T19:26:45.201Z,16.25
2023-03-25T19:31:50.516Z,18.23
2023-03-25T19:37:02.914Z,8.88
2023-03-25T19:42:10.817Z,6.90
2023-03-25T19:47:16.221Z,7.32
2023-03-25T19:52:21.981Z,9.75
2023-03-25T19:57:29.906Z,5.93
2023-03-25T20:02:35.279Z,5.43
2023-03-25T20:07:41.454Z,7.35
2023-03-25T20:12:49.899Z,7.22
2023-03-25T20:17:55.935Z,7.90
2023-03-25T20:23:01.086Z,9.27
2023-03-25T20:28:09.134Z,15.35
2023-03-25T20:33:14.324Z,5.15
2023-03-25T20:38:19.844Z,2.85
2023-03-25T20:43:27.747Z,20.95
2023-03-25T20:48:34.423Z,18.42
2023-03-25T20:53:40.722Z,5.32
2023-03-25T20:58:48.528Z,3.92
2023-03-25T21:03:53.998Z,2.60
2023-03-25T21:09:02.990Z,5.30
2023-03-25T21:14:16.118Z,2.55
2023-03-25T21:19:21.582Z,2.30
2023-03-25T21:24:34.101Z,3.58
2023-03-25T21:29:43.273Z,6.35
2023-03-25T21:34:48.505Z,5.78
2023-03-25T21:39:57.673Z,13.20
2023-03-25T21:45:05.694Z,8.95
2023-03-25T21:50:12.658Z,10.85
2023-03-25T21:55:19.837Z,7.15
2023-03-25T22:00:27.771Z,8.25
2023-03-25T22:05:34.208Z,10.07
2023-03-25T22:10:39.432Z,6.25
2023-03-25T22:15:47.245Z,5.15
2023-03-25T22:20:52.471Z,4.90
2023-03-25T22:25:57.571Z,4.63
2023-03-25T22:31:12.070Z,5.28
2023-03-25T22:36:18.460Z,3.78
2023-03-25T22:41:23.807Z,10.55
2023-03-25T22:46:32.500Z,6.15
2023-03-25T22:51:37.847Z,5.28
2023-03-25T22:56:43.934Z,5.47
2023-03-25T23:01:51.681Z,6.07
2023-03-25T23:07:07.286Z,4.07
2023-03-25T23:12:14.286Z,5.20
2023-03-25T23:17:23.357Z,5.53
2023-03-25T23:22:28.589Z,7.65
2023-03-25T23:27:34.118Z,7.35
2023-03-25T23:32:42.183Z,6.93
2023-03-25T23:37:50.269Z,7.95
2023-03-25T23:42:55.473Z,5.35
2023-03-25T23:48:03.358Z,8.30
2023-03-25T23:53:08.557Z,8.65
2023-03-25T23:58:13.683Z,10.00
